createdAt,value
2023-05-10T00:01:29.581Z,101116.94
2023-05-10T00:03:56.566Z,101118.69
2023-05-10T00:06:23.557Z,101125.69
2023-05-10T00:08:50.482Z,101126.56
2023-05-10T00:11:17.375Z,101121.31
2023-05-10T00:13:44.282Z,101123.97
2023-05-10T00:16:11.246Z,101114.38
2023-05-10T00:18:38.174Z,101118.75
2023-05-10T00:21:05.866Z,101119.66
2023-05-10T00:23:32.823Z,101110.88
2023-05-10T00:25:59.725Z,101110.00
2023-05-10T00:28:29.353Z,101105.66
2023-05-10T00:30:57.184Z,101108.28
2023-05-10T00:33:24.150Z,101103.06
2023-05-10T00:35:51.099Z,101103.97
2023-05-10T00:38:18.456Z,101096.09
2023-05-10T00:40:45.380Z,101093.50
2023-05-10T00:43:20.143Z,101094.38
2023-05-10T00:45:48.257Z,101099.66
2023-05-10T00:48:15.281Z,101085.69
2023-05-10T00:50:42.280Z,101091.81
2023-05-10T00:53:09.892Z,101090.09
2023-05-10T00:55:37.282Z,101084.84
2023-05-10T00:58:05.029Z,101085.75
2023-05-10T01:00:33.915Z,101070.03
2023-05-10T01:03:01.657Z,101072.69
2023-05-10T01:05:28.682Z,101066.59
2023-05-10T01:07:55.698Z,101069.19
2023-05-10T01:10:22.956Z,101062.25
2023-05-10T01:12:49.945Z,101069.22
2023-05-10T01:15:17.795Z,101071.84
2023-05-10T01:17:47.107Z,101064.91
2023-05-10T01:20:15.153Z,101071.91
2023-05-10T01:23:11.779Z,101071.00
2023-05-10T01:26:56.630Z,101070.16
2023-05-10T01:29:42.241Z,101070.16
2023-05-10T01:32:30.593Z,101066.69
2023-05-10T01:35:24.322Z,101063.22
2023-05-10T01:38:20.214Z,101064.09
2023-05-10T01:41:13.300Z,101060.56
2023-05-10T01:44:01.653Z,101064.06
2023-05-10T01:46:40.903Z,101063.19
2023-05-10T01:49:19.639Z,101068.44
2023-05-10T01:51:55.774Z,101063.19
2023-05-10T01:54:25.215Z,101057.09
2023-05-10T01:57:01.286Z,101063.19
2023-05-10T01:59:37.178Z,101050.13
2023-05-10T02:02:07.015Z,101056.22
2023-05-10T02:04:38.422Z,101058.84
2023-05-10T02:07:07.152Z,101064.94
2023-05-10T02:09:35.717Z,101059.69
2023-05-10T02:12:05.204Z,101064.94
2023-05-10T02:14:37.176Z,101064.06
2023-05-10T02:17:06.341Z,101060.56
2023-05-10T02:19:35.413Z,101056.22
2023-05-10T02:22:03.555Z,101054.47
2023-05-10T02:24:31.160Z,101046.63
2023-05-10T02:26:58.722Z,101051.84
2023-05-10T02:29:27.917Z,101047.50
2023-05-10T02:31:56.892Z,101039.63
2023-05-10T02:34:26.863Z,101038.78
2023-05-10T02:36:55.080Z,101051.00
2023-05-10T02:39:23.421Z,101044.88
2023-05-10T02:41:52.238Z,101041.38
2023-05-10T02:44:21.010Z,101039.63
2023-05-10T02:46:48.870Z,101035.25
2023-05-10T02:49:16.606Z,101047.47
2023-05-10T02:51:49.029Z,101041.38
2023-05-10T02:54:28.656Z,101037.00
2023-05-10T02:57:00.478Z,101043.09
2023-05-10T02:59:28.170Z,101041.34
2023-05-10T03:01:55.317Z,101038.75
2023-05-10T03:04:22.747Z,101036.97
2023-05-10T03:06:49.864Z,101039.56
2023-05-10T03:09:16.857Z,101034.34
2023-05-10T03:12:08.120Z,101036.97
2023-05-10T03:14:55.151Z,101033.47
2023-05-10T03:17:47.800Z,101038.66
2023-05-10T03:20:26.233Z,101041.31
2023-05-10T03:22:58.467Z,101035.16
2023-05-10T03:25:25.722Z,101022.06
2023-05-10T03:27:55.108Z,101037.78
2023-05-10T03:30:22.703Z,101033.41
2023-05-10T03:32:49.675Z,101030.78
2023-05-10T03:35:18.529Z,101033.38
2023-05-10T03:37:45.641Z,101031.63
2023-05-10T03:40:12.774Z,101033.38
2023-05-10T03:42:42.263Z,101033.38
2023-05-10T03:45:10.672Z,101028.16
2023-05-10T03:47:37.726Z,101027.28
2023-05-10T03:50:05.911Z,101022.94
2023-05-10T03:52:33.612Z,101031.66
2023-05-10T03:55:00.528Z,101030.78
2023-05-10T03:57:27.561Z,101033.38
2023-05-10T03:59:54.493Z,101031.63
2023-05-10T04:02:21.405Z,101018.56
2023-05-10T04:04:49.213Z,101023.81
2023-05-10T04:07:16.130Z,101018.69
2023-05-10T04:09:43.104Z,101026.56
2023-05-10T04:12:10.954Z,101019.63
2023-05-10T04:14:38.299Z,101012.66
2023-05-10T04:17:05.270Z,101014.38
2023-05-10T04:19:33.038Z,101019.56
2023-05-10T04:22:00.255Z,101020.44
2023-05-10T04:24:27.170Z,101013.44
2023-05-10T04:26:57.780Z,101015.19
2023-05-10T04:29:25.153Z,101011.69
2023-05-10T04:31:52.089Z,101010.84
2023-05-10T04:34:19.525Z,101007.38
2023-05-10T04:36:46.421Z,101009.09
2023-05-10T04:39:14.659Z,101003.00
2023-05-10T04:41:41.569Z,101004.75
2023-05-10T04:44:08.433Z,101006.50
2023-05-10T04:46:35.421Z,101003.03
2023-05-10T04:49:02.533Z,101007.41
2023-05-10T04:51:29.417Z,101006.50
2023-05-10T04:54:05.217Z,100999.53
2023-05-10T04:56:33.235Z,100996.91
2023-05-10T04:59:00.133Z,101008.22
2023-05-10T05:01:27.143Z,101007.34
2023-05-10T05:03:54.393Z,101006.47
2023-05-10T05:06:25.880Z,101006.47
2023-05-10T05:08:52.939Z,101007.31
2023-05-10T05:11:19.833Z,101007.34
2023-05-10T05:13:46.705Z,101004.66
2023-05-10T05:16:13.777Z,101019.50
2023-05-10T05:18:40.767Z,101013.38
2023-05-10T05:21:17.691Z,101015.09
2023-05-10T05:23:44.770Z,101002.91
2023-05-10T05:26:11.819Z,101005.47
2023-05-10T05:28:39.774Z,101004.56
2023-05-10T05:31:10.201Z,101011.53
2023-05-10T05:33:37.953Z,100992.31
2023-05-10T05:36:06.603Z,100991.41
2023-05-10T05:38:33.603Z,101005.34
2023-05-10T05:41:00.528Z,100995.69
2023-05-10T05:43:27.450Z,100996.53
2023-05-10T05:45:54.992Z,100995.66
2023-05-10T05:48:22.240Z,100991.25
2023-05-10T05:50:49.111Z,100995.59
2023-05-10T05:53:16.716Z,101005.19
2023-05-10T05:55:55.151Z,100998.16
2023-05-10T05:58:26.112Z,100998.16
2023-05-10T06:00:53.599Z,101000.72
2023-05-10T06:03:21.114Z,100987.59
2023-05-10T06:05:48.078Z,100993.63
2023-05-10T06:08:14.931Z,100992.75
2023-05-10T06:10:41.776Z,100999.69
2023-05-10T06:13:08.745Z,100981.28
2023-05-10T06:15:35.681Z,100975.13
2023-05-10T06:18:02.573Z,100975.06
2023-05-10T06:20:29.509Z,100992.47
2023-05-10T06:22:56.386Z,100987.13
2023-05-10T06:25:23.259Z,100994.94
2023-05-10T06:27:52.901Z,100990.50
2023-05-10T06:30:21.199Z,100996.56
2023-05-10T06:32:48.166Z,100987.75
2023-05-10T06:35:15.333Z,100992.94
2023-05-10T06:37:42.365Z,100992.00
2023-05-10T06:40:10.320Z,100983.19
2023-05-10T06:42:37.313Z,100986.59
2023-05-10T06:45:04.730Z,100994.38
2023-05-10T06:47:31.704Z,100985.56
2023-05-10T06:49:58.619Z,100977.63
2023-05-10T06:52:25.568Z,100981.91
2023-05-10T06:54:52.427Z,100986.16
2023-05-10T06:57:30.413Z,100986.91
2023-05-10T06:59:58.467Z,100986.84
2023-05-10T07:02:25.373Z,100989.41
2023-05-10T07:04:53.029Z,100994.56
2023-05-10T07:07:20.190Z,100979.59
2023-05-10T07:09:47.328Z,100975.13
2023-05-10T07:12:15.414Z,100978.56
2023-05-10T07:14:43.222Z,100967.94
2023-05-10T07:17:10.874Z,100967.81
2023-05-10T07:19:37.818Z,100962.53
2023-05-10T07:22:04.744Z,100963.22
2023-05-10T07:24:32.272Z,100961.34
2023-05-10T07:26:59.289Z,100959.50
2023-05-10T07:29:26.420Z,100956.66
2023-05-10T07:31:54.479Z,100958.22
2023-05-10T07:34:22.407Z,100962.50
2023-05-10T07:36:49.297Z,100950.91
2023-05-10T07:39:21.332Z,100953.41
2023-05-10T07:41:53.833Z,100951.50
2023-05-10T07:44:21.349Z,100946.06
2023-05-10T07:46:49.027Z,100950.38
2023-05-10T07:49:16.055Z,100952.03
2023-05-10T07:51:43.500Z,100937.91
2023-05-10T07:54:10.463Z,100934.28
2023-05-10T07:56:37.405Z,100942.09
2023-05-10T07:59:07.354Z,100947.19
2023-05-10T08:01:35.545Z,100944.41
2023-05-10T08:04:03.255Z,100931.13
2023-05-10T08:06:31.059Z,100933.53
2023-05-10T08:08:58.197Z,100941.31
2023-05-10T08:11:25.738Z,100938.41
2023-05-10T08:13:52.857Z,100933.06
2023-05-10T08:16:19.821Z,100931.09
2023-05-10T08:18:47.957Z,100926.56
2023-05-10T08:21:15.777Z,100928.97
2023-05-10T08:23:44.572Z,100923.53
2023-05-10T08:26:11.759Z,100917.22
2023-05-10T08:28:38.774Z,100921.34
2023-05-10T08:31:06.256Z,100922.94
2023-05-10T08:33:33.362Z,100921.00
2023-05-10T08:36:00.301Z,100927.88
2023-05-10T08:38:27.169Z,100921.63
2023-05-10T08:40:59.646Z,100917.94
2023-05-10T08:43:30.938Z,100923.13
2023-05-10T08:46:02.321Z,100923.69
2023-05-10T08:48:31.787Z,100921.66
2023-05-10T08:51:01.003Z,100901.28
2023-05-10T08:53:29.829Z,100915.09
2023-05-10T08:55:56.824Z,100910.53
2023-05-10T08:58:23.858Z,100916.56
2023-05-10T09:00:53.988Z,100914.66
2023-05-10T09:03:21.124Z,100905.75
2023-05-10T09:05:49.490Z,100910.03
2023-05-10T09:08:17.390Z,100920.31
2023-05-10T09:10:49.306Z,100919.22
2023-05-10T09:13:16.740Z,100912.84
2023-05-10T09:15:45.709Z,100918.75
2023-05-10T09:18:13.236Z,100919.34
2023-05-10T09:20:40.331Z,100926.19
2023-05-10T09:23:07.860Z,100917.19
2023-05-10T09:25:34.807Z,100913.50
2023-05-10T09:28:01.726Z,100911.56
2023-05-10T09:30:31.609Z,100906.78
2023-05-10T09:33:00.817Z,100917.06
2023-05-10T09:35:31.227Z,100923.81
2023-05-10T09:38:05.145Z,100910.44
2023-05-10T09:40:32.653Z,100922.34
2023-05-10T09:43:11.778Z,100922.16
2023-05-10T09:45:39.303Z,100923.69
2023-05-10T09:48:07.030Z,100913.03
2023-05-10T09:50:35.111Z,100926.88
2023-05-10T09:53:04.544Z,100915.19
2023-05-10T09:55:42.355Z,100915.81
2023-05-10T09:58:11.827Z,100911.19
2023-05-10T10:00:41.827Z,100922.47
2023-05-10T10:03:18.049Z,100917.00
2023-05-10T10:05:47.144Z,100930.09
2023-05-10T10:08:14.902Z,100912.22
2023-05-10T10:10:42.449Z,100925.34
2023-05-10T10:13:09.639Z,100919.94
2023-05-10T10:15:36.970Z,100921.59
2023-05-10T10:18:07.570Z,100929.31
2023-05-10T10:20:34.772Z,100924.69
2023-05-10T10:23:01.656Z,100920.00
2023-05-10T10:25:28.563Z,100922.34
2023-05-10T10:27:55.386Z,100915.06
2023-05-10T10:30:43.551Z,100920.25
2023-05-10T10:33:37.739Z,100921.78
2023-05-10T10:36:05.689Z,100917.94
2023-05-10T10:38:48.136Z,100913.22
2023-05-10T10:41:41.972Z,100908.53
2023-05-10T10:44:24.495Z,100892.44
2023-05-10T10:47:13.281Z,100908.94
2023-05-10T10:49:49.816Z,100904.31
2023-05-10T10:52:24.093Z,100909.38
2023-05-10T10:55:03.989Z,100903.09
2023-05-10T10:57:41.214Z,100907.31
2023-05-10T11:00:25.125Z,100902.00
2023-05-10T11:03:15.601Z,100894.84
2023-05-10T11:05:50.314Z,100886.91
2023-05-10T11:08:30.964Z,100893.06
2023-05-10T11:11:00.685Z,100901.81
2023-05-10T11:13:47.718Z,100893.94
2023-05-10T11:16:24.767Z,100889.97
2023-05-10T11:19:06.918Z,100908.13
2023-05-10T11:21:35.318Z,100905.09
2023-05-10T11:24:06.886Z,100895.09
2023-05-10T11:26:36.758Z,100892.31
2023-05-10T11:29:05.846Z,100893.91
2023-05-10T11:31:32.732Z,100897.16
2023-05-10T11:34:02.718Z,100896.69
2023-05-10T11:36:34.421Z,100897.28
2023-05-10T11:39:01.405Z,100891.63
2023-05-10T11:41:31.020Z,100894.94
2023-05-10T11:43:59.429Z,100901.69
2023-05-10T11:46:28.525Z,100903.13
2023-05-10T11:49:02.882Z,100900.28
2023-05-10T11:51:30.173Z,100897.25
2023-05-10T11:53:58.181Z,100913.78
2023-05-10T11:56:27.097Z,100912.03
2023-05-10T11:58:57.262Z,100901.41
2023-05-10T12:01:28.726Z,100907.47
2023-05-10T12:04:00.553Z,100912.69
2023-05-10T12:06:33.144Z,100911.09
2023-05-10T12:09:00.580Z,100911.78
2023-05-10T12:11:29.476Z,100907.34
2023-05-10T12:13:57.535Z,100908.16
2023-05-10T12:16:29.499Z,100906.25
2023-05-10T12:19:01.404Z,100915.13
2023-05-10T12:21:31.365Z,100917.63
2023-05-10T12:24:04.061Z,100906.91
2023-05-10T12:26:31.095Z,100920.13
2023-05-10T12:29:18.050Z,100924.44
2023-05-10T12:31:56.585Z,100913.88
2023-05-10T12:34:33.102Z,100923.38
2023-05-10T12:37:00.701Z,100920.56
2023-05-10T12:39:39.618Z,100918.06
2023-05-10T12:42:07.165Z,100917.97
2023-05-10T12:44:34.060Z,100923.13
2023-05-10T12:47:00.901Z,100923.00
2023-05-10T12:49:27.896Z,100917.47
2023-05-10T12:51:54.795Z,100934.19
2023-05-10T12:54:21.631Z,100917.38
2023-05-10T12:56:48.464Z,100923.44
2023-05-10T12:59:15.303Z,100916.16
2023-05-10T13:01:42.283Z,100919.53
2023-05-10T13:04:09.261Z,100916.75
2023-05-10T13:06:36.132Z,100932.47
2023-05-10T13:09:03.374Z,100925.19
2023-05-10T13:11:30.357Z,100927.72
2023-05-10T13:13:57.199Z,100925.88
2023-05-10T13:16:24.109Z,100917.72
2023-05-10T13:18:51.610Z,100917.81
2023-05-10T13:21:18.515Z,100923.03
2023-05-10T13:23:45.388Z,100919.47
2023-05-10T13:26:12.226Z,100916.72
2023-05-10T13:28:39.773Z,100916.56
2023-05-10T13:31:06.669Z,100910.38
2023-05-10T13:33:33.560Z,100918.88
2023-05-10T13:36:00.437Z,100914.16
2023-05-10T13:38:27.315Z,100907.91
2023-05-10T13:40:54.258Z,100899.22
2023-05-10T13:43:21.193Z,100907.84
2023-05-10T13:45:48.152Z,100911.41
2023-05-10T13:48:15.069Z,100902.41
2023-05-10T13:50:42.015Z,100900.53
2023-05-10T13:53:08.886Z,100901.31
2023-05-10T13:55:36.093Z,100903.81
2023-05-10T13:58:02.981Z,100897.47
2023-05-10T14:00:29.895Z,100901.72
2023-05-10T14:02:56.791Z,100897.19
2023-05-10T14:05:26.200Z,100897.88
2023-05-10T14:07:53.394Z,100903.91
2023-05-10T14:10:20.299Z,100901.78
2023-05-10T14:12:47.159Z,100909.53
2023-05-10T14:15:14.048Z,100899.06
2023-05-10T14:17:40.959Z,100904.28
2023-05-10T14:20:09.336Z,100897.25
2023-05-10T14:22:36.437Z,100901.63
2023-05-10T14:25:03.550Z,100895.38
2023-05-10T14:27:31.334Z,100897.94
2023-05-10T14:29:58.307Z,100894.22
2023-05-10T14:32:25.197Z,100897.72
2023-05-10T14:34:52.054Z,100890.47
2023-05-10T14:37:18.920Z,100884.41
2023-05-10T14:39:45.771Z,100895.53
2023-05-10T14:42:13.220Z,100894.84
2023-05-10T14:44:40.649Z,100899.22
2023-05-10T14:47:07.836Z,100899.31
2023-05-10T14:49:35.726Z,100893.81
2023-05-10T14:52:02.611Z,100892.78
2023-05-10T14:54:29.475Z,100891.69
2023-05-10T14:56:56.315Z,100905.69
2023-05-10T14:59:23.189Z,100900.19
2023-05-10T15:01:50.412Z,100896.50
2023-05-10T15:04:17.866Z,100896.38
2023-05-10T15:06:45.464Z,100895.25
2023-05-10T15:09:12.313Z,100900.50
2023-05-10T15:11:39.225Z,100895.00
2023-05-10T15:14:06.087Z,100898.28
2023-05-10T15:16:35.702Z,100894.53
2023-05-10T15:19:03.110Z,100895.19
2023-05-10T15:21:31.726Z,100899.56
2023-05-10T15:23:58.613Z,100902.16
2023-05-10T15:26:27.204Z,100892.34
2023-05-10T15:28:54.157Z,100901.13
2023-05-10T15:31:21.120Z,100898.41
2023-05-10T15:33:48.092Z,100900.13
2023-05-10T15:36:14.970Z,100894.72
2023-05-10T15:38:41.858Z,100884.22
2023-05-10T15:41:08.735Z,100891.94
2023-05-10T15:43:35.621Z,100891.88
2023-05-10T15:46:02.588Z,100896.34
2023-05-10T15:48:32.232Z,100896.41
2023-05-10T15:50:59.195Z,100894.78
2023-05-10T15:53:26.097Z,100893.94
2023-05-10T15:55:53.021Z,100888.66
2023-05-10T15:58:19.972Z,100892.34
2023-05-10T16:00:47.073Z,100886.25
2023-05-10T16:03:14.018Z,100890.81
2023-05-10T16:05:41.092Z,100897.94
2023-05-10T16:08:08.010Z,100897.88
2023-05-10T16:10:34.926Z,100893.31
2023-05-10T16:13:03.688Z,100898.56
2023-05-10T16:15:30.593Z,100897.69
2023-05-10T16:17:58.030Z,100900.34
2023-05-10T16:20:25.227Z,100903.13
2023-05-10T16:22:52.126Z,100901.25
2023-05-10T16:25:19.271Z,100905.53
2023-05-10T16:27:46.396Z,100897.56
2023-05-10T16:30:13.389Z,100902.72
2023-05-10T16:32:40.270Z,100906.00
2023-05-10T16:35:08.153Z,100909.13
2023-05-10T16:37:35.829Z,100910.44
2023-05-10T16:40:03.051Z,100911.44
2023-05-10T16:42:30.480Z,100916.97
2023-05-10T16:44:57.491Z,100917.97
2023-05-10T16:47:26.721Z,100927.97
2023-05-10T16:49:53.819Z,100919.19
2023-05-10T16:52:20.711Z,100921.03
2023-05-10T16:54:47.589Z,100919.34
2023-05-10T16:57:14.475Z,100926.41
2023-05-10T16:59:41.411Z,100915.84
2023-05-10T17:02:08.409Z,100920.34
2023-05-10T17:04:35.518Z,100922.28
2023-05-10T17:07:02.426Z,100924.28
2023-05-10T17:09:29.355Z,100922.69
2023-05-10T17:11:56.375Z,100932.72
2023-05-10T17:14:23.438Z,100930.97
2023-05-10T17:16:52.669Z,100927.06
2023-05-10T17:19:19.756Z,100926.19
2023-05-10T17:21:46.733Z,100937.16
2023-05-10T17:24:14.282Z,100937.66
2023-05-10T17:26:41.832Z,100939.38
2023-05-10T17:29:08.857Z,100941.16
2023-05-10T17:31:35.759Z,100935.22
2023-05-10T17:34:05.475Z,100939.88
2023-05-10T17:36:33.340Z,100939.06
2023-05-10T17:39:00.922Z,100941.69
2023-05-10T17:41:27.900Z,100956.78
2023-05-10T17:43:55.354Z,100955.97
2023-05-10T17:46:22.388Z,100964.03
2023-05-10T17:48:49.435Z,100961.47
2023-05-10T17:51:16.336Z,100966.69
2023-05-10T17:53:43.232Z,100968.38
2023-05-10T17:56:10.122Z,100967.25
2023-05-10T17:58:38.314Z,100965.28
2023-05-10T18:01:05.737Z,100971.97
2023-05-10T18:03:32.942Z,100971.69
2023-05-10T18:06:00.066Z,100968.63
2023-05-10T18:08:28.663Z,100975.38
2023-05-10T18:10:55.580Z,100970.81
2023-05-10T18:13:22.492Z,100978.47
2023-05-10T18:15:49.365Z,100983.38
2023-05-10T18:18:17.355Z,100986.75
2023-05-10T18:20:46.146Z,100988.28
2023-05-10T18:23:14.182Z,100991.38
2023-05-10T18:25:41.056Z,100998.03
2023-05-10T18:28:08.620Z,100997.69
2023-05-10T18:30:35.490Z,100997.38
2023-05-10T18:33:02.659Z,100996.09
2023-05-10T18:35:29.601Z,101005.44
2023-05-10T18:37:56.506Z,101015.63
2023-05-10T18:40:23.357Z,101018.66
2023-05-10T18:42:50.590Z,101021.88
2023-05-10T18:45:17.747Z,101032.69
2023-05-10T18:47:44.860Z,101041.91
2023-05-10T18:50:12.817Z,101047.50
2023-05-10T18:52:39.732Z,101058.31
2023-05-10T18:55:08.432Z,101054.19
2023-05-10T18:57:41.412Z,101061.44
2023-05-10T19:00:12.304Z,101068.72
2023-05-10T19:02:40.198Z,101073.28
2023-05-10T19:05:08.162Z,101066.31
2023-05-10T19:07:35.938Z,101072.75
2023-05-10T19:10:03.297Z,101085.31
2023-05-10T19:12:30.928Z,101089.91
2023-05-10T19:14:57.835Z,101086.56
2023-05-10T19:17:24.774Z,101092.84
2023-05-10T19:19:51.677Z,101100.06
2023-05-10T19:22:28.337Z,101096.72
2023-05-10T19:25:04.529Z,101101.31
2023-05-10T19:27:32.232Z,101112.09
2023-05-10T19:29:59.115Z,101109.66
2023-05-10T19:32:26.248Z,101111.63
2023-05-10T19:34:53.147Z,101115.44
2023-05-10T19:37:20.013Z,101116.66
2023-05-10T19:39:47.246Z,101125.78
2023-05-10T19:42:14.210Z,101125.13
2023-05-10T19:44:41.184Z,101126.25
2023-05-10T19:47:09.130Z,101113.59
2023-05-10T19:49:39.138Z,101126.91
2023-05-10T19:52:07.885Z,101117.56
2023-05-10T19:54:34.792Z,101119.50
2023-05-10T19:57:01.762Z,101133.03
2023-05-10T19:59:28.755Z,101120.03
2023-05-10T20:01:55.879Z,101133.53
2023-05-10T20:04:23.048Z,101132.00
2023-05-10T20:06:49.976Z,101135.66
2023-05-10T20:09:16.869Z,101120.03
2023-05-10T20:11:43.773Z,101129.00
2023-05-10T20:14:10.955Z,101134.50
2023-05-10T20:16:37.909Z,101132.03
2023-05-10T20:19:05.017Z,101135.66
2023-05-10T20:21:33.474Z,101136.75
2023-05-10T20:24:00.384Z,101138.72
2023-05-10T20:26:27.275Z,101133.56
2023-05-10T20:28:54.164Z,101128.50
2023-05-10T20:31:21.096Z,101132.22
2023-05-10T20:33:48.010Z,101131.50
2023-05-10T20:36:14.975Z,101146.69
2023-05-10T20:38:41.911Z,101136.28
2023-05-10T20:41:08.852Z,101137.28
2023-05-10T20:43:35.806Z,101144.50
2023-05-10T20:46:05.464Z,101135.94
2023-05-10T20:48:33.101Z,101138.78
2023-05-10T20:51:02.072Z,101134.69
2023-05-10T20:53:29.674Z,101134.84
2023-05-10T20:55:56.581Z,101137.66
2023-05-10T20:58:23.486Z,101142.22
2023-05-10T21:00:50.467Z,101130.06
2023-05-10T21:03:17.370Z,101125.78
2023-05-10T21:05:44.311Z,101130.28
2023-05-10T21:08:11.210Z,101131.34
2023-05-10T21:10:38.094Z,101132.38
2023-05-10T21:13:05.236Z,101137.78
2023-05-10T21:15:32.122Z,101137.91
2023-05-10T21:17:59.898Z,101138.09
2023-05-10T21:20:26.947Z,101141.72
2023-05-10T21:22:53.852Z,101139.25
2023-05-10T21:25:22.084Z,101146.44
2023-05-10T21:27:49.069Z,101139.63
2023-05-10T21:30:16.266Z,101139.84
2023-05-10T21:32:43.340Z,101146.19
2023-05-10T21:35:10.395Z,101149.88
2023-05-10T21:37:37.275Z,101147.47
2023-05-10T21:40:04.727Z,101147.66
2023-05-10T21:42:32.127Z,101144.28
2023-05-10T21:44:59.092Z,101143.50
2023-05-10T21:47:26.008Z,101141.88
2023-05-10T21:49:52.895Z,101143.78
2023-05-10T21:52:19.788Z,101127.41
2023-05-10T21:54:46.766Z,101136.13
2023-05-10T21:57:13.656Z,101141.53
2023-05-10T21:59:40.598Z,101142.50
2023-05-10T22:02:07.724Z,101147.00
2023-05-10T22:04:34.868Z,101147.97
2023-05-10T22:07:01.768Z,101144.63
2023-05-10T22:09:28.702Z,101143.84
2023-05-10T22:11:55.616Z,101141.31
2023-05-10T22:14:23.029Z,101151.91
2023-05-10T22:16:50.046Z,101146.75
2023-05-10T22:19:16.974Z,101142.44
2023-05-10T22:21:43.915Z,101146.94
2023-05-10T22:24:10.811Z,101147.09
2023-05-10T22:26:37.703Z,101142.78
2023-05-10T22:29:04.592Z,101149.03
2023-05-10T22:31:31.742Z,101149.16
2023-05-10T22:33:58.776Z,101151.84
2023-05-10T22:36:25.673Z,101150.22
2023-05-10T22:38:52.549Z,101151.22
2023-05-10T22:41:19.431Z,101155.72
2023-05-10T22:43:46.432Z,101154.84
2023-05-10T22:46:13.463Z,101156.69
2023-05-10T22:48:41.436Z,101159.44
2023-05-10T22:51:08.347Z,101162.13
2023-05-10T22:53:35.505Z,101165.72
2023-05-10T22:56:02.647Z,101169.28
2023-05-10T22:58:29.570Z,101172.88
2023-05-10T23:00:56.503Z,101171.25
2023-05-10T23:03:23.448Z,101177.44
2023-05-10T23:05:50.346Z,101180.13
2023-05-10T23:08:17.477Z,101178.47
2023-05-10T23:10:44.390Z,101181.16
2023-05-10T23:13:11.276Z,101184.75
2023-05-10T23:15:40.057Z,101183.94
2023-05-10T23:18:06.992Z,101186.63
2023-05-10T23:20:33.909Z,101178.84
2023-05-10T23:23:00.811Z,101177.13
2023-05-10T23:25:27.768Z,101177.22
2023-05-10T23:27:54.700Z,101184.28
2023-05-10T23:30:21.651Z,101177.34
2023-05-10T23:32:48.575Z,101180.00
2023-05-10T23:35:15.564Z,101175.69
2023-05-10T23:37:42.997Z,101180.97
2023-05-10T23:40:10.302Z,101190.63
2023-05-10T23:42:37.226Z,101175.78
2023-05-10T23:45:04.624Z,101176.69
2023-05-10T23:47:31.531Z,101174.16
2023-05-10T23:49:58.513Z,101175.88
2023-05-10T23:52:25.610Z,101182.03
2023-05-10T23:54:53.433Z,101182.94
2023-05-10T23:57:20.817Z,101180.34
2023-05-10T23:59:47.802Z,101176.00
